createdAt,value
2022-12-15T00:03:03.069Z,32.00
2022-12-15T00:07:14.316Z,28.27
2022-12-15T00:11:25.393Z,27.50
2022-12-15T00:15:37.061Z,29.97
2022-12-15T00:19:48.613Z,35.55
2022-12-15T00:24:00.124Z,30.77
2022-12-15T00:28:11.318Z,25.37
2022-12-15T00:32:22.518Z,30.47
2022-12-15T00:36:33.852Z,27.58
2022-12-15T00:40:26.894Z,27.00
2022-12-15T00:44:21.382Z,28.75
2022-12-15T00:48:14.674Z,28.23
2022-12-15T00:52:26.275Z,30.23
2022-12-15T00:56:37.455Z,32.27
2022-12-15T01:00:49.444Z,31.02
2022-12-15T01:05:00.444Z,29.25
2022-12-15T01:09:11.827Z,32.93
2022-12-15T01:13:24.040Z,27.67
2022-12-15T01:17:36.128Z,31.23
2022-12-15T01:21:28.702Z,30.43
2022-12-15T01:25:24.174Z,27.73
2022-12-15T01:29:16.821Z,33.83
2022-12-15T01:33:09.542Z,28.88
2022-12-15T01:37:02.141Z,28.98
2022-12-15T01:41:07.406Z,34.77
2022-12-15T01:45:24.825Z,35.42
2022-12-15T01:49:32.368Z,34.17
2022-12-15T01:53:25.984Z,34.13
2022-12-15T01:57:25.802Z,31.50
2022-12-15T02:01:18.541Z,32.33
2022-12-15T02:05:11.957Z,30.00
2022-12-15T02:09:05.108Z,29.35
2022-12-15T02:13:23.923Z,35.30
2022-12-15T02:17:49.751Z,29.42
2022-12-15T02:22:10.638Z,30.00
2022-12-15T02:26:23.445Z,30.27
2022-12-15T02:31:08.933Z,33.83
2022-12-15T02:35:12.232Z,32.15
2022-12-15T02:39:06.139Z,33.55
2022-12-15T02:43:01.303Z,34.00
2022-12-15T02:46:59.613Z,27.35
2022-12-15T02:51:05.084Z,28.90
2022-12-15T02:55:22.932Z,35.53
2022-12-15T02:59:25.877Z,32.60
2022-12-15T03:03:21.954Z,33.10
2022-12-15T03:07:14.781Z,31.13
2022-12-15T03:11:07.460Z,33.33
2022-12-15T03:15:00.148Z,34.22
2022-12-15T03:18:53.021Z,30.80
2022-12-15T03:22:45.969Z,35.20
2022-12-15T03:26:38.644Z,32.70
2022-12-15T03:30:32.094Z,30.30
2022-12-15T03:34:24.606Z,32.88
2022-12-15T03:38:18.221Z,37.53
2022-12-15T03:42:10.909Z,34.60
2022-12-15T03:46:03.692Z,33.17
2022-12-15T03:49:56.652Z,36.08
2022-12-15T03:53:49.524Z,39.67
2022-12-15T03:57:42.535Z,45.50
2022-12-15T04:01:36.584Z,39.95
2022-12-15T04:05:34.432Z,34.97
2022-12-15T04:09:27.214Z,35.20
2022-12-15T04:13:19.905Z,35.70
2022-12-15T04:17:13.107Z,37.33
2022-12-15T04:21:06.101Z,38.33
2022-12-15T04:25:17.232Z,39.15
2022-12-15T04:29:28.274Z,38.10
2022-12-15T04:33:40.773Z,110.22
2022-12-15T04:37:52.299Z,46.80
2022-12-15T04:42:03.999Z,43.72
2022-12-15T04:46:15.359Z,49.10
2022-12-15T04:50:26.710Z,52.63
2022-12-15T04:54:37.938Z,51.53
2022-12-15T04:58:49.121Z,39.60
2022-12-15T05:03:00.346Z,41.13
2022-12-15T05:07:11.655Z,38.30
2022-12-15T05:11:22.988Z,41.80
2022-12-15T05:15:34.380Z,34.92
2022-12-15T05:19:45.632Z,37.33
2022-12-15T05:23:57.280Z,37.60
2022-12-15T05:28:08.772Z,37.13
2022-12-15T05:32:01.511Z,36.92
2022-12-15T05:35:58.174Z,43.50
2022-12-15T05:39:50.854Z,42.20
2022-12-15T05:43:43.456Z,40.67
2022-12-15T05:47:36.429Z,36.42
2022-12-15T05:51:28.997Z,35.95
2022-12-15T05:55:21.523Z,34.72
2022-12-15T05:59:15.686Z,35.95
2022-12-15T06:03:08.270Z,40.50
2022-12-15T06:07:01.172Z,44.10
2022-12-15T06:10:54.952Z,43.55
2022-12-15T06:14:47.617Z,46.05
2022-12-15T06:18:50.146Z,38.13
2022-12-15T06:22:48.129Z,40.05
2022-12-15T06:26:42.890Z,47.10
2022-12-15T06:30:35.456Z,45.67
2022-12-15T06:34:28.234Z,43.45
2022-12-15T06:38:20.931Z,44.83
2022-12-15T06:42:14.778Z,45.40
2022-12-15T06:46:07.830Z,44.75
2022-12-15T06:50:01.038Z,47.70
2022-12-15T06:53:56.606Z,45.30
2022-12-15T06:57:50.439Z,37.10
2022-12-15T07:01:43.520Z,44.83
2022-12-15T07:05:36.280Z,49.17
2022-12-15T07:09:29.102Z,45.90
2022-12-15T07:13:21.677Z,48.78
2022-12-15T07:17:14.809Z,49.42
2022-12-15T07:21:09.786Z,48.05
2022-12-15T07:25:02.791Z,46.78
2022-12-15T07:28:56.341Z,42.22
2022-12-15T07:32:50.149Z,47.17
2022-12-15T07:36:47.055Z,39.25
2022-12-15T07:40:42.530Z,49.88
2022-12-15T07:44:35.594Z,58.42
2022-12-15T07:48:28.204Z,44.40
2022-12-15T07:52:21.141Z,46.30
2022-12-15T07:56:14.210Z,49.95
2022-12-15T08:00:09.595Z,43.83
2022-12-15T08:04:02.352Z,52.20
2022-12-15T08:07:55.564Z,44.83
2022-12-15T08:11:48.578Z,50.40
2022-12-15T08:15:41.872Z,44.25
2022-12-15T08:19:34.717Z,46.83
2022-12-15T08:23:29.281Z,47.53
2022-12-15T08:27:24.174Z,45.80
2022-12-15T08:31:19.768Z,49.08
2022-12-15T08:35:38.954Z,47.05
2022-12-15T08:39:25.335Z,58.25
2022-12-15T08:43:17.964Z,49.63
2022-12-15T08:47:10.882Z,46.10
2022-12-15T08:51:03.584Z,49.65
2022-12-15T08:54:56.996Z,44.65
2022-12-15T08:58:51.031Z,44.70
2022-12-15T09:02:44.545Z,49.92
2022-12-15T09:06:37.567Z,41.92
2022-12-15T09:10:31.308Z,43.95
2022-12-15T09:14:29.086Z,48.08
2022-12-15T09:18:22.411Z,48.10
2022-12-15T09:22:15.103Z,45.70
2022-12-15T09:26:14.471Z,45.97
2022-12-15T09:30:07.980Z,48.22
2022-12-15T09:34:01.721Z,42.38
2022-12-15T09:37:56.220Z,45.55
2022-12-15T09:41:58.851Z,44.97
2022-12-15T09:46:01.363Z,47.40
2022-12-15T09:50:04.681Z,52.40
2022-12-15T09:53:57.971Z,45.38
2022-12-15T09:58:10.982Z,50.20
2022-12-15T10:02:14.451Z,52.33
2022-12-15T10:06:16.585Z,58.72
2022-12-15T10:10:26.037Z,54.08
2022-12-15T10:14:27.618Z,55.03
2022-12-15T10:18:27.388Z,51.22
2022-12-15T10:22:27.674Z,55.85
2022-12-15T10:26:23.579Z,47.28
2022-12-15T10:30:16.365Z,47.53
2022-12-15T10:34:28.250Z,49.83
2022-12-15T10:38:23.619Z,49.80
2022-12-15T10:42:25.285Z,44.95
2022-12-15T10:46:22.508Z,46.33
2022-12-15T10:50:25.016Z,49.25
2022-12-15T10:54:18.911Z,51.60
2022-12-15T10:58:18.668Z,45.17
2022-12-15T11:02:24.017Z,42.28
2022-12-15T11:06:22.049Z,47.97
2022-12-15T11:10:20.888Z,46.92
2022-12-15T11:14:24.374Z,46.78
2022-12-15T11:18:27.378Z,43.88
2022-12-15T11:22:53.229Z,43.30
2022-12-15T11:26:52.225Z,44.58
2022-12-15T11:30:57.430Z,46.03
2022-12-15T11:34:50.035Z,54.75
2022-12-15T11:38:51.944Z,58.05
2022-12-15T11:43:09.427Z,57.78
2022-12-15T11:47:17.194Z,60.25
2022-12-15T11:51:42.603Z,58.15
2022-12-15T11:55:52.508Z,55.50
2022-12-15T12:00:03.851Z,61.40
2022-12-15T12:04:23.029Z,59.47
2022-12-15T12:08:31.485Z,59.78
2022-12-15T12:12:39.168Z,60.70
2022-12-15T12:16:42.929Z,67.60
2022-12-15T12:21:24.243Z,71.07
2022-12-15T12:25:22.736Z,69.07
2022-12-15T12:29:30.868Z,65.10
2022-12-15T12:37:37.152Z,65.38
2022-12-15T12:41:45.041Z,63.03
2022-12-15T12:45:51.304Z,67.75
2022-12-15T12:49:48.426Z,49.53
2022-12-15T12:53:43.269Z,47.63
2022-12-15T12:57:41.183Z,48.63
2022-12-15T13:01:36.344Z,50.47
2022-12-15T13:05:33.609Z,47.58
2022-12-15T13:09:43.110Z,53.00
2022-12-15T13:13:42.354Z,49.85
2022-12-15T13:17:42.136Z,45.92
2022-12-15T13:21:43.969Z,46.55
2022-12-15T13:25:40.509Z,43.55
2022-12-15T13:29:34.110Z,46.03
2022-12-15T13:33:27.436Z,46.05
2022-12-15T13:37:50.679Z,49.72
2022-12-15T13:46:24.942Z,56.63
2022-12-15T13:50:31.317Z,49.35
2022-12-15T13:54:29.532Z,49.25
2022-12-15T13:58:24.117Z,45.67
2022-12-15T14:02:30.095Z,53.80
2022-12-15T14:06:22.727Z,58.90
2022-12-15T14:10:41.945Z,58.20
2022-12-15T14:14:37.909Z,65.25
2022-12-15T14:18:33.435Z,53.28
2022-12-15T14:22:29.960Z,60.45
2022-12-15T14:26:28.179Z,57.53
2022-12-15T14:30:33.181Z,53.80
2022-12-15T14:34:37.285Z,58.58
2022-12-15T14:38:43.478Z,62.20
2022-12-15T14:42:38.543Z,67.28
2022-12-15T14:46:31.562Z,64.57
2022-12-15T14:50:25.697Z,63.17
2022-12-15T14:54:39.380Z,65.30
2022-12-15T14:58:36.404Z,65.53
2022-12-15T15:02:30.361Z,60.47
2022-12-15T15:06:30.378Z,60.60
2022-12-15T15:10:29.093Z,65.03
2022-12-15T15:14:32.482Z,64.45
2022-12-15T15:18:30.110Z,62.20
2022-12-15T15:22:43.234Z,62.00
2022-12-15T15:26:35.864Z,69.10
2022-12-15T15:30:30.265Z,73.35
2022-12-15T15:34:23.035Z,80.35
2022-12-15T15:38:23.989Z,73.90
2022-12-15T15:42:16.995Z,71.53
2022-12-15T15:46:20.936Z,81.03
2022-12-15T15:50:16.543Z,78.30
2022-12-15T15:54:15.034Z,71.22
2022-12-15T15:58:12.407Z,88.28
2022-12-15T16:02:05.356Z,80.07
2022-12-15T16:05:58.280Z,83.82
2022-12-15T16:09:52.467Z,85.88
2022-12-15T16:13:45.122Z,71.78
2022-12-15T16:17:37.712Z,71.75
2022-12-15T16:21:31.391Z,69.38
2022-12-15T16:25:38.857Z,78.38
2022-12-15T16:29:35.475Z,65.70
2022-12-15T16:33:28.574Z,67.65
2022-12-15T16:37:27.540Z,70.85
2022-12-15T16:41:23.343Z,63.40
2022-12-15T16:45:18.359Z,69.38
2022-12-15T16:49:11.989Z,63.95
2022-12-15T16:53:05.456Z,65.15
2022-12-15T16:57:00.176Z,71.65
2022-12-15T17:00:56.715Z,72.38
2022-12-15T17:04:49.853Z,67.97
2022-12-15T17:08:56.226Z,64.88
2022-12-15T17:12:49.511Z,66.85
2022-12-15T17:16:42.167Z,59.70
2022-12-15T17:20:35.176Z,59.28
2022-12-15T17:24:28.438Z,52.85
2022-12-15T17:28:24.831Z,56.67
2022-12-15T17:32:18.622Z,46.70
2022-12-15T17:36:32.024Z,49.22
2022-12-15T17:40:25.431Z,48.13
2022-12-15T17:44:36.178Z,50.75
2022-12-15T17:48:29.419Z,48.40
2022-12-15T17:52:22.091Z,49.85
2022-12-15T17:56:17.207Z,48.53
2022-12-15T18:00:44.466Z,53.40
2022-12-15T18:04:41.819Z,45.03
2022-12-15T18:08:35.005Z,41.17
2022-12-15T18:12:28.409Z,45.25
2022-12-15T18:16:21.244Z,40.25
2022-12-15T18:20:15.662Z,39.92
2022-12-15T18:24:17.650Z,42.38
2022-12-15T18:28:30.683Z,42.42
2022-12-15T18:32:26.950Z,37.70
2022-12-15T18:36:20.093Z,40.28
2022-12-15T18:40:21.460Z,40.00
2022-12-15T18:44:23.006Z,40.97
2022-12-15T18:48:20.314Z,43.03
2022-12-15T18:52:22.835Z,40.15
2022-12-15T18:56:18.607Z,37.30
2022-12-15T19:00:14.943Z,43.03
2022-12-15T19:04:08.076Z,41.35
2022-12-15T19:08:13.653Z,40.47
2022-12-15T19:12:19.823Z,37.92
2022-12-15T19:16:20.895Z,39.78
2022-12-15T19:20:39.648Z,35.83
2022-12-15T19:24:51.408Z,35.42
2022-12-15T19:28:44.346Z,40.20
2022-12-15T19:32:37.707Z,37.42
2022-12-15T19:36:35.079Z,36.08
2022-12-15T19:40:32.605Z,31.23
2022-12-15T19:44:26.846Z,35.13
2022-12-15T19:48:23.840Z,30.20
2022-12-15T19:52:19.517Z,27.60
2022-12-15T19:56:17.991Z,22.55
2022-12-15T20:00:23.263Z,26.45
2022-12-15T20:04:18.435Z,23.30
2022-12-15T20:08:21.976Z,32.45
2022-12-15T20:12:20.045Z,28.40
2022-12-15T20:16:17.853Z,27.98
2022-12-15T20:20:14.492Z,20.02
2022-12-15T20:24:09.290Z,16.67
2022-12-15T20:28:03.571Z,17.55
2022-12-15T20:31:57.777Z,14.27
2022-12-15T20:35:51.886Z,17.77
2022-12-15T20:39:44.765Z,15.27
2022-12-15T20:43:38.003Z,16.08
2022-12-15T20:47:31.670Z,13.82
2022-12-15T20:51:28.772Z,20.33
2022-12-15T20:55:21.366Z,16.70
2022-12-15T20:59:15.718Z,16.23
2022-12-15T21:03:30.162Z,17.27
2022-12-15T21:07:23.650Z,20.10
2022-12-15T21:11:19.872Z,21.00
2022-12-15T21:15:24.409Z,20.65
2022-12-15T21:19:22.093Z,21.42
2022-12-15T21:23:22.845Z,22.08
2022-12-15T21:27:15.846Z,20.63
2022-12-15T21:31:08.740Z,20.55
2022-12-15T21:35:01.739Z,18.23
2022-12-15T21:38:54.937Z,21.48
2022-12-15T21:42:49.089Z,22.27
2022-12-15T21:46:42.404Z,18.90
2022-12-15T21:50:36.955Z,18.52
2022-12-15T21:54:35.901Z,18.38
2022-12-15T21:58:29.038Z,17.75
2022-12-15T22:02:26.870Z,17.70
2022-12-15T22:06:25.287Z,18.50
2022-12-15T22:10:18.241Z,16.05
2022-12-15T22:14:24.318Z,16.95
2022-12-15T22:18:20.299Z,20.80
2022-12-15T22:22:14.013Z,16.13
2022-12-15T22:26:07.137Z,15.63
2022-12-15T22:29:59.771Z,18.75
2022-12-15T22:33:52.399Z,17.80
2022-12-15T22:37:45.415Z,19.27
2022-12-15T22:41:43.993Z,20.75
2022-12-15T22:45:41.114Z,19.73
2022-12-15T22:49:38.214Z,20.30
2022-12-15T22:53:33.490Z,17.52
2022-12-15T22:57:29.843Z,21.67
2022-12-15T23:01:23.816Z,22.83
2022-12-15T23:05:19.436Z,20.40
2022-12-15T23:09:12.165Z,25.20
2022-12-15T23:13:05.265Z,21.80
2022-12-15T23:16:57.845Z,25.55
2022-12-15T23:20:51.781Z,26.08
2022-12-15T23:24:44.529Z,29.17
2022-12-15T23:28:37.271Z,25.40
2022-12-15T23:32:29.928Z,26.25
2022-12-15T23:36:22.394Z,25.15
2022-12-15T23:40:21.460Z,30.55
2022-12-15T23:44:13.972Z,26.77
2022-12-15T23:48:07.963Z,25.38
2022-12-15T23:52:00.566Z,29.13
2022-12-15T23:55:53.336Z,28.65
2022-12-15T23:59:45.951Z,30.00
